createdAt,value
2023-05-24T00:00:24.294Z,99.80
2023-05-24T00:02:52.756Z,99.80
2023-05-24T00:05:22.196Z,99.80
2023-05-24T00:08:21.085Z,99.80
2023-05-24T00:10:49.573Z,99.80
2023-05-24T00:13:17.814Z,99.80
2023-05-24T00:15:45.799Z,99.80
2023-05-24T00:18:13.770Z,99.80
2023-05-24T00:20:43.302Z,99.80
2023-05-24T00:23:11.451Z,99.80
2023-05-24T00:25:39.398Z,99.80
2023-05-24T00:28:07.337Z,99.80
2023-05-24T00:30:35.313Z,99.80
2023-05-24T00:33:03.310Z,99.80
2023-05-24T00:35:31.411Z,99.80
2023-05-24T00:38:00.815Z,99.80
2023-05-24T00:40:28.930Z,99.80
2023-05-24T00:42:56.882Z,99.80
2023-05-24T00:45:24.818Z,99.80
2023-05-24T00:47:52.954Z,99.80
2023-05-24T00:50:21.939Z,99.80
2023-05-24T00:52:52.557Z,99.80
2023-05-24T00:55:22.458Z,99.80
2023-05-24T00:57:52.313Z,99.80
2023-05-24T01:00:20.743Z,99.80
2023-05-24T01:02:49.888Z,99.80
2023-05-24T01:05:18.375Z,99.80
2023-05-24T01:07:56.036Z,99.80
2023-05-24T01:10:33.273Z,99.80
2023-05-24T01:13:08.366Z,99.80
2023-05-24T01:15:45.857Z,99.80
2023-05-24T01:18:22.141Z,99.80
2023-05-24T01:21:00.072Z,99.80
2023-05-24T01:23:40.241Z,99.80
2023-05-24T01:26:23.144Z,99.80
2023-05-24T01:28:53.274Z,99.80
2023-05-24T01:31:22.900Z,99.80
2023-05-24T01:33:51.023Z,99.80
2023-05-24T01:36:19.011Z,99.80
2023-05-24T01:38:48.025Z,99.80
2023-05-24T01:41:24.751Z,99.80
2023-05-24T01:44:08.977Z,99.80
2023-05-24T01:46:38.600Z,99.80
2023-05-24T01:49:22.957Z,99.80
2023-05-24T01:51:55.702Z,99.80
2023-05-24T01:54:26.915Z,99.80
2023-05-24T01:56:57.273Z,99.80
2023-05-24T01:59:29.805Z,99.80
2023-05-24T02:01:58.635Z,99.80
2023-05-24T02:04:26.944Z,99.80
2023-05-24T02:06:54.963Z,99.80
2023-05-24T02:09:22.926Z,99.80
2023-05-24T02:11:51.078Z,99.80
2023-05-24T02:14:24.438Z,99.80
2023-05-24T02:16:58.809Z,99.80
2023-05-24T02:19:27.095Z,99.80
2023-05-24T02:21:55.054Z,99.80
2023-05-24T02:24:23.088Z,99.80
2023-05-24T02:26:51.322Z,99.80
2023-05-24T02:29:19.357Z,99.80
2023-05-24T02:31:47.311Z,99.80
2023-05-24T02:34:16.825Z,99.80
2023-05-24T02:36:45.793Z,99.80
2023-05-24T02:39:13.837Z,99.80
2023-05-24T02:41:42.264Z,99.80
2023-05-24T02:44:10.267Z,99.80
2023-05-24T02:46:38.611Z,99.80
2023-05-24T02:49:06.875Z,99.80
2023-05-24T02:51:37.082Z,99.80
2023-05-24T02:54:05.364Z,99.80
2023-05-24T02:56:34.712Z,99.80
2023-05-24T02:59:02.842Z,99.80
2023-05-24T03:01:30.926Z,99.80
2023-05-24T03:03:58.958Z,99.80
2023-05-24T03:06:27.073Z,99.80
2023-05-24T03:08:56.822Z,99.80
2023-05-24T03:11:25.230Z,99.80
2023-05-24T03:13:53.205Z,99.80
2023-05-24T03:16:21.479Z,99.80
2023-05-24T03:18:50.733Z,99.80
2023-05-24T03:21:20.903Z,99.80
2023-05-24T03:23:49.034Z,99.80
2023-05-24T03:26:18.689Z,99.80
2023-05-24T03:28:47.731Z,99.80
2023-05-24T03:31:16.657Z,99.80
2023-05-24T03:33:44.635Z,99.80
2023-05-24T03:36:12.666Z,99.80
2023-05-24T03:38:40.805Z,99.80
2023-05-24T03:41:09.298Z,99.80
2023-05-24T03:43:38.854Z,99.80
2023-05-24T03:46:06.978Z,99.80
2023-05-24T03:48:35.031Z,99.80
2023-05-24T03:51:03.084Z,99.80
2023-05-24T03:53:32.222Z,99.80
2023-05-24T03:56:00.148Z,99.80
2023-05-24T03:58:28.156Z,99.80
2023-05-24T04:00:57.574Z,99.80
2023-05-24T04:03:26.401Z,99.80
2023-05-24T04:05:54.996Z,99.80
2023-05-24T04:08:23.021Z,99.80
2023-05-24T04:10:51.018Z,99.80
2023-05-24T04:13:19.030Z,99.80
2023-05-24T04:15:47.093Z,99.80
2023-05-24T04:18:16.652Z,99.80
2023-05-24T04:20:44.983Z,99.80
2023-05-24T04:23:13.241Z,99.80
2023-05-24T04:25:41.970Z,99.80
2023-05-24T04:28:10.207Z,99.80
2023-05-24T04:30:38.879Z,99.80
2023-05-24T04:33:07.015Z,99.80
2023-05-24T04:35:36.609Z,99.80
2023-05-24T04:38:04.630Z,99.80
2023-05-24T04:40:32.632Z,99.80
2023-05-24T04:43:01.326Z,99.80
2023-05-24T04:45:30.716Z,99.80
2023-05-24T04:47:58.786Z,99.80
2023-05-24T04:50:26.758Z,99.80
2023-05-24T04:52:56.158Z,99.80
2023-05-24T04:55:24.086Z,99.80
2023-05-24T04:57:52.053Z,99.80
2023-05-24T05:00:21.377Z,99.80
2023-05-24T05:02:49.840Z,99.80
2023-05-24T05:05:17.849Z,99.80
2023-05-24T05:07:45.838Z,99.80
2023-05-24T05:10:15.226Z,99.80
2023-05-24T05:12:43.198Z,99.80
2023-05-24T05:15:12.604Z,99.80
2023-05-24T05:17:40.583Z,99.80
2023-05-24T05:20:09.689Z,99.80
2023-05-24T05:22:37.740Z,99.80
2023-05-24T05:25:06.381Z,99.80
2023-05-24T05:27:35.780Z,99.80
2023-05-24T05:30:05.502Z,99.80
2023-05-24T05:32:33.548Z,99.80
2023-05-24T05:35:01.646Z,99.80
2023-05-24T05:37:29.889Z,99.80
2023-05-24T05:39:57.966Z,99.80
2023-05-24T05:42:26.121Z,99.80
2023-05-24T05:44:55.590Z,99.80
2023-05-24T05:47:23.759Z,99.80
2023-05-24T05:49:55.363Z,99.80
2023-05-24T05:52:23.380Z,99.80
2023-05-24T05:54:51.652Z,99.80
2023-05-24T05:57:24.261Z,99.80
2023-05-24T05:59:52.776Z,99.80
2023-05-24T06:02:23.040Z,99.80
2023-05-24T06:04:51.646Z,99.80
2023-05-24T06:07:21.889Z,99.80
2023-05-24T06:09:50.225Z,99.80
2023-05-24T06:12:18.704Z,99.80
2023-05-24T06:14:51.448Z,99.80
2023-05-24T06:17:24.787Z,99.80
2023-05-24T06:19:56.432Z,99.80
2023-05-24T06:22:28.248Z,99.80
2023-05-24T06:24:56.965Z,99.80
2023-05-24T06:27:25.146Z,99.80
2023-05-24T06:29:56.581Z,99.80
2023-05-24T06:32:26.334Z,99.80
2023-05-24T06:34:55.041Z,99.80
2023-05-24T06:37:28.590Z,99.80
2023-05-24T06:39:56.589Z,99.80
2023-05-24T06:42:24.635Z,99.80
2023-05-24T06:44:52.953Z,99.80
2023-05-24T06:47:22.250Z,99.80
2023-05-24T06:49:52.270Z,99.80
2023-05-24T06:52:20.437Z,99.80
2023-05-24T06:54:48.530Z,99.80
2023-05-24T06:57:16.549Z,99.80
2023-05-24T06:59:44.632Z,99.80
2023-05-24T07:02:12.714Z,99.80
2023-05-24T07:04:42.437Z,99.80
2023-05-24T07:07:13.672Z,99.80
2023-05-24T07:09:42.457Z,99.80
2023-05-24T07:12:10.699Z,99.80
2023-05-24T07:14:38.651Z,99.80
2023-05-24T07:17:06.750Z,99.80
2023-05-24T07:19:36.118Z,99.80
2023-05-24T07:22:04.172Z,99.80
2023-05-24T09:14:46.695Z,98.00
2023-05-24T09:17:18.939Z,97.90
2023-05-24T09:19:47.309Z,98.80
2023-05-24T09:22:15.715Z,97.80
2023-05-24T09:24:44.153Z,97.50
2023-05-24T09:27:12.523Z,99.40
2023-05-24T09:29:41.790Z,98.60
2023-05-24T09:32:11.308Z,98.50
2023-05-24T09:34:41.506Z,98.80
2023-05-24T09:37:14.045Z,96.90
2023-05-24T09:39:43.182Z,94.80
2023-05-24T09:42:16.427Z,97.20
2023-05-24T09:44:44.512Z,96.90
2023-05-24T09:47:14.206Z,92.60
2023-05-24T09:49:43.724Z,94.10
2023-05-24T09:52:17.997Z,91.50
2023-05-24T09:54:48.202Z,90.80
2023-05-24T09:57:17.520Z,90.60
2023-05-24T09:59:46.237Z,91.60
2023-05-24T10:02:18.515Z,91.80
2023-05-24T10:04:46.582Z,91.70
2023-05-24T10:07:15.212Z,92.80
2023-05-24T10:09:45.827Z,93.70
2023-05-24T10:12:13.934Z,94.20
2023-05-24T10:14:42.345Z,94.00
2023-05-24T10:17:10.651Z,95.30
2023-05-24T10:19:40.970Z,93.40
2023-05-24T10:22:11.228Z,93.70
2023-05-24T10:24:47.526Z,92.20
2023-05-24T10:27:19.248Z,92.00
2023-05-24T10:29:59.201Z,92.50
2023-05-24T10:32:31.597Z,92.80
2023-05-24T10:35:01.840Z,92.30
2023-05-24T10:37:31.746Z,90.50
2023-05-24T10:40:01.962Z,88.90
2023-05-24T10:42:40.612Z,90.40
2023-05-24T10:45:32.392Z,89.10
2023-05-24T10:48:57.222Z,86.30
2023-05-24T10:51:40.250Z,86.50
2023-05-24T10:54:19.084Z,86.60
2023-05-24T10:59:57.823Z,87.80
2023-05-24T11:02:36.154Z,87.10
2023-05-24T11:05:07.392Z,86.80
2023-05-24T11:07:43.485Z,86.00
2023-05-24T11:10:15.221Z,85.60
2023-05-24T11:12:44.877Z,86.00
2023-05-24T11:15:13.250Z,86.10
2023-05-24T11:18:15.638Z,88.40
2023-05-24T11:20:44.718Z,85.30
2023-05-24T11:23:16.719Z,82.00
2023-05-24T11:25:46.254Z,83.50
2023-05-24T11:28:15.343Z,83.70
2023-05-24T11:30:43.891Z,83.70
2023-05-24T11:33:19.987Z,84.00
2023-05-24T11:35:48.935Z,82.20
2023-05-24T11:38:18.862Z,79.50
2023-05-24T11:40:48.167Z,80.70
2023-05-24T11:43:18.286Z,80.50
2023-05-24T11:45:48.670Z,80.30
2023-05-24T11:48:17.469Z,81.50
2023-05-24T11:50:50.746Z,80.70
2023-05-24T11:53:21.070Z,78.10
2023-05-24T11:58:23.652Z,76.00
2023-05-24T12:00:52.828Z,75.80
2023-05-24T12:03:21.826Z,76.20
2023-05-24T12:08:20.567Z,75.80
2023-05-24T12:10:51.688Z,74.20
2023-05-24T12:13:24.012Z,74.80
2023-05-24T12:15:55.825Z,73.50
2023-05-24T12:18:26.351Z,74.60
2023-05-24T12:20:54.877Z,73.80
2023-05-24T12:23:27.519Z,71.30
